createdAt,value
2022-10-11T00:00:18.288Z,49.09
2022-10-11T00:00:52.141Z,49.39
2022-10-11T00:01:24.430Z,48.91
2022-10-11T00:01:59.275Z,49.22
2022-10-11T00:02:31.487Z,49.18
2022-10-11T00:03:04.379Z,49.17
2022-10-11T00:03:39.388Z,49.39
2022-10-11T00:04:11.655Z,49.20
2022-10-11T00:04:43.929Z,49.39
2022-10-11T00:05:21.538Z,49.04
2022-10-11T00:05:54.466Z,49.36
2022-10-11T00:06:26.789Z,48.96
2022-10-11T00:07:01.662Z,49.00
2022-10-11T00:07:34.233Z,49.24
2022-10-11T00:08:06.732Z,49.06
2022-10-11T00:08:41.573Z,49.08
2022-10-11T00:09:14.818Z,49.31
2022-10-11T00:09:47.050Z,49.07
2022-10-11T00:10:22.704Z,49.49
2022-10-11T00:10:58.991Z,49.50
2022-10-11T00:11:31.248Z,49.10
2022-10-11T00:12:06.274Z,49.46
2022-10-11T00:12:38.566Z,49.25
2022-10-11T00:13:10.825Z,49.03
2022-10-11T00:13:45.661Z,49.38
2022-10-11T00:14:17.876Z,49.16
2022-10-11T00:14:50.103Z,49.11
2022-10-11T00:15:25.402Z,49.53
2022-10-11T00:15:58.110Z,49.32
2022-10-11T00:16:30.441Z,49.48
2022-10-11T00:17:07.812Z,49.40
2022-10-11T00:17:40.073Z,49.48
2022-10-11T00:18:12.313Z,49.17
2022-10-11T00:18:47.134Z,49.37
2022-10-11T00:19:19.410Z,49.12
2022-10-11T00:19:51.665Z,49.17
2022-10-11T00:20:29.394Z,49.50
2022-10-11T00:21:03.160Z,49.52
2022-10-11T00:21:36.809Z,49.29
2022-10-11T00:22:11.677Z,49.59
2022-10-11T00:22:44.013Z,49.44
2022-10-11T00:23:16.425Z,49.40
2022-10-11T00:23:52.159Z,49.05
2022-10-11T00:24:24.418Z,49.05
2022-10-11T00:24:58.761Z,49.10
2022-10-11T00:25:33.649Z,49.37
2022-10-11T00:26:08.715Z,49.25
2022-10-11T00:26:46.357Z,49.03
2022-10-11T00:27:21.954Z,49.48
2022-10-11T00:27:54.178Z,49.08
2022-10-11T00:28:26.546Z,49.29
2022-10-11T00:29:01.422Z,49.30
2022-10-11T00:29:33.627Z,49.23
2022-10-11T00:30:07.552Z,49.29
2022-10-11T00:30:45.513Z,49.60
2022-10-11T00:31:18.592Z,49.13
2022-10-11T00:31:50.859Z,49.15
2022-10-11T00:32:25.965Z,49.29
2022-10-11T00:32:58.202Z,49.25
2022-10-11T00:33:30.462Z,49.40
2022-10-11T00:34:05.293Z,49.26
2022-10-11T00:34:37.506Z,49.17
2022-10-11T00:35:10.318Z,49.51
2022-10-11T00:35:48.788Z,49.10
2022-10-11T00:36:21.573Z,49.34
2022-10-11T00:36:53.779Z,49.48
2022-10-11T00:37:28.588Z,49.20
2022-10-11T00:38:00.842Z,49.05
2022-10-11T00:38:33.326Z,49.47
2022-10-11T00:39:08.194Z,49.48
2022-10-11T00:39:40.409Z,49.15
2022-10-11T00:40:16.793Z,49.24
2022-10-11T00:40:51.618Z,49.13
2022-10-11T00:41:23.882Z,49.39
2022-10-11T00:41:56.158Z,49.10
2022-10-11T00:42:28.473Z,49.30
2022-10-11T00:43:03.318Z,49.12
2022-10-11T00:43:36.201Z,49.27
2022-10-11T00:44:13.494Z,49.33
2022-10-11T00:44:49.861Z,49.33
2022-10-11T00:45:54.371Z,49.47
2022-10-11T00:46:33.274Z,49.05
2022-10-11T00:47:07.169Z,49.17
2022-10-11T00:47:41.138Z,49.46
2022-10-11T00:48:16.742Z,49.14
2022-10-11T00:48:53.439Z,49.46
2022-10-11T00:49:32.950Z,49.10
2022-10-11T00:50:11.133Z,49.46
2022-10-11T00:50:45.965Z,49.15
2022-10-11T00:51:20.482Z,49.31
2022-10-11T00:51:57.690Z,49.18
2022-10-11T00:52:33.011Z,49.14
2022-10-11T00:53:08.045Z,49.10
2022-10-11T00:53:43.040Z,49.25
2022-10-11T00:54:18.217Z,49.12
2022-10-11T00:54:53.253Z,49.33
2022-10-11T00:55:28.383Z,49.13
2022-10-11T00:56:03.919Z,49.34
2022-10-11T00:56:38.685Z,49.25
2022-10-11T00:57:17.147Z,49.22
2022-10-11T00:57:50.343Z,49.10
2022-10-11T00:58:23.945Z,49.44
2022-10-11T00:58:56.349Z,49.17
2022-10-11T00:59:34.343Z,49.22
2022-10-11T01:00:09.683Z,49.13
2022-10-11T01:00:42.311Z,49.25
2022-10-11T01:01:17.398Z,48.99
2022-10-11T01:01:49.859Z,49.20
2022-10-11T01:02:26.357Z,49.36
2022-10-11T01:02:58.828Z,49.08
2022-10-11T01:03:31.618Z,49.15
2022-10-11T01:04:04.240Z,48.88
2022-10-11T01:04:39.073Z,49.27
2022-10-11T01:05:29.646Z,48.86
2022-10-11T01:06:05.738Z,48.95
2022-10-11T01:06:40.907Z,48.96
2022-10-11T01:07:13.533Z,49.44
2022-10-11T01:07:49.482Z,49.17
2022-10-11T01:08:21.791Z,49.37
2022-10-11T01:08:54.629Z,48.98
2022-10-11T01:09:29.581Z,49.15
2022-10-11T01:10:01.868Z,49.25
2022-10-11T01:10:34.578Z,49.22
2022-10-11T01:11:07.022Z,49.29
2022-10-11T01:11:42.698Z,49.06
2022-10-11T01:12:17.290Z,49.30
2022-10-11T01:12:58.305Z,49.41
2022-10-11T01:13:41.790Z,49.30
2022-10-11T01:14:51.943Z,49.08
2022-10-11T01:15:31.307Z,48.97
2022-10-11T01:16:10.963Z,49.12
2022-10-11T01:16:49.454Z,49.20
2022-10-11T01:17:28.118Z,49.04
2022-10-11T01:18:04.635Z,49.00
2022-10-11T01:18:44.982Z,49.27
2022-10-11T01:19:32.030Z,48.98
2022-10-11T01:20:28.222Z,49.20
2022-10-11T01:21:07.801Z,48.98
2022-10-11T01:21:46.702Z,49.14
2022-10-11T01:22:37.317Z,49.15
2022-10-11T01:23:50.533Z,49.36
2022-10-11T01:24:48.642Z,49.36
2022-10-11T01:25:28.277Z,49.20
2022-10-11T01:26:24.121Z,49.40
2022-10-11T01:27:39.978Z,49.31
2022-10-11T01:28:22.728Z,49.32
2022-10-11T01:29:05.243Z,49.04
2022-10-11T01:29:48.630Z,49.15
2022-10-11T01:30:25.441Z,49.29
2022-10-11T01:31:03.654Z,48.96
2022-10-11T01:31:42.121Z,49.34
2022-10-11T01:32:17.081Z,49.24
2022-10-11T01:32:52.866Z,49.03
2022-10-11T01:33:32.279Z,49.15
2022-10-11T01:34:07.479Z,48.93
2022-10-11T01:34:41.962Z,48.96
2022-10-11T01:35:20.070Z,48.96
2022-10-11T01:35:59.830Z,48.96
2022-10-11T01:36:36.940Z,49.36
2022-10-11T01:37:11.510Z,48.98
2022-10-11T01:37:45.656Z,49.36
2022-10-11T01:38:27.673Z,49.19
2022-10-11T01:39:03.261Z,48.98
2022-10-11T01:39:39.302Z,49.25
2022-10-11T01:40:17.547Z,49.15
2022-10-11T01:40:52.657Z,48.93
2022-10-11T01:41:27.489Z,49.30
2022-10-11T01:42:06.142Z,49.20
2022-10-11T01:42:39.550Z,49.04
2022-10-11T01:43:11.794Z,49.15
2022-10-11T01:43:47.273Z,49.32
2022-10-11T01:44:20.030Z,49.18
2022-10-11T01:44:52.567Z,49.05
2022-10-11T01:45:30.170Z,48.96
2022-10-11T01:46:05.278Z,49.20
2022-10-11T01:46:37.806Z,49.03
2022-10-11T01:47:12.618Z,49.02
2022-10-11T01:47:45.975Z,49.22
2022-10-11T01:48:18.585Z,49.26
2022-10-11T01:48:55.083Z,49.10
2022-10-11T01:49:27.359Z,49.23
2022-10-11T01:50:01.157Z,49.25
2022-10-11T01:50:41.466Z,48.96
2022-10-11T01:51:16.629Z,49.32
2022-10-11T01:51:50.309Z,49.11
2022-10-11T01:52:22.941Z,49.34
2022-10-11T01:52:58.263Z,49.18
2022-10-11T01:53:40.762Z,49.08
2022-10-11T01:54:22.977Z,49.48
2022-10-11T01:55:20.354Z,49.45
2022-10-11T01:55:55.742Z,49.56
2022-10-11T01:56:41.430Z,49.32
2022-10-11T01:57:43.956Z,49.38
2022-10-11T01:58:25.154Z,49.25
2022-10-11T01:59:22.087Z,49.00
2022-10-11T01:59:59.883Z,49.03
2022-10-11T02:00:39.946Z,48.99
2022-10-11T02:01:23.641Z,49.41
2022-10-11T02:02:02.854Z,49.42
2022-10-11T02:02:49.445Z,49.20
2022-10-11T02:03:28.731Z,49.09
2022-10-11T02:04:03.671Z,49.05
2022-10-11T02:04:43.069Z,49.26
2022-10-11T02:05:22.821Z,49.34
2022-10-11T02:05:58.199Z,49.45
2022-10-11T02:06:33.548Z,49.12
2022-10-11T02:07:10.520Z,49.32
2022-10-11T02:07:46.116Z,49.53
2022-10-11T02:08:23.088Z,49.48
2022-10-11T02:09:07.862Z,49.06
2022-10-11T02:09:44.967Z,49.13
2022-10-11T02:10:23.626Z,49.24
2022-10-11T02:11:01.974Z,49.13
2022-10-11T02:11:35.549Z,49.28
2022-10-11T02:12:11.447Z,49.05
2022-10-11T02:12:48.707Z,49.40
2022-10-11T02:13:24.401Z,49.33
2022-10-11T02:13:59.170Z,49.23
2022-10-11T02:14:37.972Z,49.28
2022-10-11T02:15:11.297Z,49.15
2022-10-11T02:15:47.541Z,49.27
2022-10-11T02:16:24.544Z,49.35
2022-10-11T02:17:01.521Z,49.45
2022-10-11T02:17:36.247Z,49.41
2022-10-11T02:18:13.761Z,49.08
2022-10-11T02:18:48.605Z,49.20
2022-10-11T02:19:25.069Z,49.08
2022-10-11T02:20:00.718Z,49.51
2022-10-11T02:20:34.915Z,49.34
2022-10-11T02:21:09.434Z,49.25
2022-10-11T02:21:43.774Z,49.25
2022-10-11T02:22:23.507Z,49.52
2022-10-11T02:22:59.599Z,49.33
2022-10-11T02:23:34.418Z,49.16
2022-10-11T02:24:12.538Z,49.24
2022-10-11T02:24:47.186Z,49.50
2022-10-11T02:25:22.623Z,49.41
2022-10-11T02:25:58.242Z,49.49
2022-10-11T02:26:32.117Z,49.32
2022-10-11T02:27:05.785Z,49.50
2022-10-11T02:27:42.022Z,49.40
2022-10-11T02:28:15.859Z,49.52
2022-10-11T02:28:48.817Z,49.20
2022-10-11T02:29:24.579Z,49.59
2022-10-11T02:29:58.593Z,49.17
2022-10-11T02:30:31.502Z,49.58
2022-10-11T02:31:10.146Z,49.68
2022-10-11T02:31:43.629Z,49.88
2022-10-11T02:32:16.994Z,49.39
2022-10-11T02:32:49.781Z,49.65
2022-10-11T02:33:27.178Z,49.05
2022-10-11T02:34:02.398Z,49.08
2022-10-11T02:34:39.648Z,48.75
2022-10-11T02:35:12.212Z,48.97
2022-10-11T02:35:47.861Z,48.56
2022-10-11T02:36:26.326Z,48.78
2022-10-11T02:37:02.974Z,48.28
2022-10-11T02:37:43.217Z,48.19
2022-10-11T02:38:22.869Z,48.55
2022-10-11T02:38:57.845Z,48.17
2022-10-11T02:39:33.091Z,48.36
2022-10-11T02:40:12.403Z,48.27
2022-10-11T02:40:47.932Z,48.00
2022-10-11T02:41:24.077Z,47.95
2022-10-11T02:42:00.881Z,48.12
2022-10-11T02:42:37.466Z,47.61
2022-10-11T02:43:13.847Z,47.83
2022-10-11T02:43:52.281Z,47.85
2022-10-11T02:44:27.334Z,47.55
2022-10-11T02:45:01.707Z,47.55
2022-10-11T02:45:39.117Z,47.80
2022-10-11T02:46:16.669Z,47.43
2022-10-11T02:46:50.852Z,47.42
2022-10-11T02:47:25.676Z,47.56
2022-10-11T02:47:58.263Z,47.73
2022-10-11T02:48:31.158Z,47.73
2022-10-11T02:49:06.206Z,47.27
2022-10-11T02:49:38.670Z,47.25
2022-10-11T02:50:11.140Z,47.18
2022-10-11T02:50:46.390Z,47.41
2022-10-11T02:51:18.975Z,47.23
2022-10-11T02:51:51.226Z,47.42
2022-10-11T02:52:23.454Z,47.58
2022-10-11T02:52:58.285Z,47.56
2022-10-11T02:53:31.024Z,47.37
2022-10-11T02:54:03.286Z,47.36
2022-10-11T02:54:38.127Z,47.45
2022-10-11T02:55:12.001Z,47.12
2022-10-11T02:55:44.247Z,47.34
2022-10-11T02:56:19.061Z,47.25
2022-10-11T02:56:51.405Z,47.33
2022-10-11T02:57:23.626Z,47.31
2022-10-11T02:57:58.467Z,47.09
2022-10-11T02:58:30.709Z,47.48
2022-10-11T02:59:02.927Z,47.28
2022-10-11T02:59:35.145Z,46.99
2022-10-11T03:00:11.241Z,47.24
2022-10-11T03:00:43.527Z,47.29
2022-10-11T03:01:18.424Z,47.23
2022-10-11T03:01:53.428Z,47.06
2022-10-11T03:02:25.774Z,46.95
2022-10-11T03:02:58.066Z,47.47
2022-10-11T03:03:32.910Z,47.23
2022-10-11T03:04:05.457Z,46.92
2022-10-11T03:04:37.689Z,46.99
2022-10-11T03:05:12.699Z,47.09
2022-10-11T03:05:44.946Z,47.24
2022-10-11T03:06:17.179Z,46.95
2022-10-11T03:06:51.998Z,46.96
2022-10-11T03:07:24.251Z,47.31
2022-10-11T03:07:56.473Z,46.94
2022-10-11T03:08:28.714Z,47.40
2022-10-11T03:09:03.577Z,47.37
2022-10-11T03:09:35.831Z,47.23
2022-10-11T03:10:08.980Z,47.39
2022-10-11T03:10:44.314Z,47.06
2022-10-11T03:11:16.567Z,47.22
2022-10-11T03:11:48.869Z,47.30
2022-10-11T03:12:23.890Z,47.13
2022-10-11T03:12:56.714Z,47.02
2022-10-11T03:13:28.921Z,46.96
2022-10-11T03:14:03.754Z,47.04
2022-10-11T03:14:35.995Z,47.32
2022-10-11T03:15:08.986Z,46.99
2022-10-11T03:15:43.802Z,47.15
2022-10-11T03:16:18.630Z,46.97
2022-10-11T03:16:51.664Z,47.19
2022-10-11T03:17:42.589Z,47.15
2022-10-11T03:18:14.818Z,47.16
2022-10-11T03:18:47.052Z,47.16
2022-10-11T03:19:21.961Z,47.20
2022-10-11T03:19:54.307Z,47.11
2022-10-11T03:20:26.718Z,47.25
2022-10-11T03:21:01.630Z,47.47
2022-10-11T03:21:33.926Z,47.42
2022-10-11T03:22:06.165Z,47.31
2022-10-11T03:22:40.970Z,47.25
2022-10-11T03:23:13.848Z,47.05
2022-10-11T03:23:46.245Z,47.40
2022-10-11T03:24:21.090Z,47.24
2022-10-11T03:24:53.330Z,47.08
2022-10-11T03:25:25.603Z,47.15
2022-10-11T03:26:00.440Z,47.30
2022-10-11T03:26:32.658Z,47.19
2022-10-11T03:27:04.877Z,47.54
2022-10-11T03:27:39.718Z,47.31
2022-10-11T03:28:11.985Z,47.03
2022-10-11T03:28:44.310Z,47.10
2022-10-11T03:29:19.258Z,47.27
2022-10-11T03:29:51.518Z,47.49
2022-10-11T03:30:23.841Z,47.48
2022-10-11T03:30:58.673Z,47.11
2022-10-11T03:31:33.586Z,47.11
2022-10-11T03:32:06.209Z,47.07
2022-10-11T03:32:38.413Z,47.47
2022-10-11T03:33:13.226Z,47.47
2022-10-11T03:33:45.451Z,47.32
2022-10-11T03:34:17.761Z,47.01
2022-10-11T03:34:52.604Z,47.56
2022-10-11T03:35:24.819Z,48.12
2022-10-11T03:35:59.651Z,48.45
2022-10-11T03:36:34.499Z,48.17
2022-10-11T03:37:06.710Z,48.04
2022-10-11T03:37:38.927Z,48.13
2022-10-11T03:38:13.123Z,48.77
2022-10-11T03:38:48.217Z,48.64
2022-10-11T03:39:20.462Z,49.03
2022-10-11T03:39:52.705Z,49.05
2022-10-11T03:40:27.557Z,48.96
2022-10-11T03:40:59.764Z,49.00
2022-10-11T03:41:32.462Z,49.07
2022-10-11T03:42:07.625Z,48.91
2022-10-11T03:42:39.904Z,48.86
2022-10-11T03:43:12.357Z,48.98
2022-10-11T03:43:47.294Z,48.48
2022-10-11T03:44:19.522Z,48.54
2022-10-11T03:44:52.113Z,48.77
2022-10-11T03:45:24.386Z,48.52
2022-10-11T03:45:59.203Z,48.57
2022-10-11T03:46:34.040Z,49.84
2022-10-11T03:47:06.551Z,49.82
2022-10-11T03:47:42.490Z,49.62
2022-10-11T03:48:14.887Z,49.34
2022-10-11T03:48:47.101Z,49.06
2022-10-11T03:49:21.934Z,49.03
2022-10-11T03:49:54.150Z,48.79
2022-10-11T03:50:26.631Z,48.45
2022-10-11T03:51:01.437Z,48.43
2022-10-11T03:51:33.869Z,48.05
2022-10-11T03:52:06.153Z,47.97
2022-10-11T03:52:40.962Z,47.76
2022-10-11T03:53:13.371Z,46.96
2022-10-11T03:53:45.581Z,47.06
2022-10-11T03:54:20.391Z,47.11
2022-10-11T03:54:52.916Z,47.34
2022-10-11T03:55:25.155Z,46.72
2022-10-11T03:56:02.420Z,46.84
2022-10-11T03:56:38.211Z,46.67
2022-10-11T03:57:10.430Z,46.59
2022-10-11T03:57:45.389Z,46.73
2022-10-11T03:58:17.630Z,46.69
2022-10-11T03:58:49.834Z,46.19
2022-10-11T03:59:24.640Z,46.38
2022-10-11T03:59:57.365Z,46.31
2022-10-11T04:00:29.588Z,46.38
2022-10-11T04:01:04.428Z,45.76
2022-10-11T04:01:39.305Z,45.66
2022-10-11T04:02:11.649Z,45.23
2022-10-11T04:02:46.809Z,45.46
2022-10-11T04:03:19.058Z,45.39
2022-10-11T04:03:52.874Z,45.52
2022-10-11T04:04:27.721Z,45.69
2022-10-11T04:05:04.580Z,45.88
2022-10-11T04:05:38.564Z,46.09
2022-10-11T04:06:16.351Z,46.21
2022-10-11T04:06:48.559Z,46.72
2022-10-11T04:07:20.832Z,46.87
2022-10-11T04:08:00.660Z,46.72
2022-10-11T04:08:33.012Z,47.30
2022-10-11T04:09:11.088Z,46.76
2022-10-11T04:09:48.857Z,47.39
2022-10-11T04:10:23.895Z,47.13
2022-10-11T04:10:59.282Z,47.36
2022-10-11T04:11:37.140Z,47.30
2022-10-11T04:12:09.389Z,47.22
2022-10-11T04:12:41.760Z,47.23
2022-10-11T04:13:17.640Z,47.32
2022-10-11T04:13:49.969Z,47.76
2022-10-11T04:14:22.573Z,47.71
2022-10-11T04:15:03.509Z,47.28
2022-10-11T04:15:36.993Z,47.37
2022-10-11T04:16:09.351Z,47.39
2022-10-11T04:16:55.595Z,47.66
2022-10-11T04:17:30.594Z,47.64
2022-10-11T04:18:03.189Z,47.95
2022-10-11T04:18:41.505Z,47.58
2022-10-11T04:19:16.404Z,47.59
2022-10-11T04:19:48.699Z,47.72
2022-10-11T04:20:24.653Z,47.47
2022-10-11T04:21:00.040Z,47.95
2022-10-11T04:21:33.273Z,47.96
2022-10-11T04:22:10.626Z,47.55
2022-10-11T04:22:42.933Z,47.80
2022-10-11T04:23:18.314Z,47.61
2022-10-11T04:23:53.162Z,47.83
2022-10-11T04:24:25.411Z,47.88
2022-10-11T04:24:57.681Z,47.68
2022-10-11T04:25:32.510Z,47.68
2022-10-11T04:26:06.585Z,47.71
2022-10-11T04:26:39.261Z,48.16
2022-10-11T04:27:14.094Z,48.00
2022-10-11T04:27:46.349Z,47.95
2022-10-11T04:28:18.614Z,48.12
2022-10-11T04:28:53.517Z,47.75
2022-10-11T04:29:31.450Z,48.00
2022-10-11T04:30:05.976Z,47.88
2022-10-11T04:30:40.852Z,48.01
2022-10-11T04:31:13.102Z,47.87
2022-10-11T04:31:50.536Z,47.95
2022-10-11T04:32:22.778Z,48.23
2022-10-11T04:32:54.994Z,48.21
2022-10-11T04:33:29.818Z,47.91
2022-10-11T04:34:04.268Z,48.06
2022-10-11T04:34:37.975Z,47.96
2022-10-11T04:35:12.967Z,47.89
2022-10-11T04:35:45.409Z,47.81
2022-10-11T04:36:20.865Z,48.26
2022-10-11T04:36:58.609Z,48.05
2022-10-11T04:37:31.020Z,48.30
2022-10-11T04:38:03.397Z,48.25
2022-10-11T04:38:42.737Z,48.16
2022-10-11T04:39:18.145Z,48.04
2022-10-11T04:39:50.679Z,47.93
2022-10-11T04:40:27.604Z,48.09
2022-10-11T04:41:06.949Z,47.92
2022-10-11T04:41:39.527Z,48.16
2022-10-11T04:42:15.249Z,48.11
2022-10-11T04:42:50.727Z,48.24
2022-10-11T04:43:23.279Z,48.22
2022-10-11T04:43:59.413Z,48.09
2022-10-11T04:44:32.235Z,48.28
2022-10-11T04:45:07.430Z,48.36
2022-10-11T04:45:42.397Z,47.91
2022-10-11T04:46:14.724Z,48.33
2022-10-11T04:46:50.856Z,47.87
2022-10-11T04:47:34.830Z,48.24
2022-10-11T04:48:10.010Z,48.14
2022-10-11T04:48:42.584Z,48.33
2022-10-11T04:49:23.435Z,47.84
2022-10-11T04:49:59.798Z,47.91
2022-10-11T04:50:32.112Z,48.32
2022-10-11T04:51:09.414Z,48.33
2022-10-11T04:51:42.388Z,48.11
2022-10-11T04:52:21.100Z,47.95
2022-10-11T04:52:57.041Z,48.32
2022-10-11T04:53:32.385Z,48.25
2022-10-11T04:54:08.229Z,47.87
2022-10-11T04:54:40.440Z,48.02
2022-10-11T04:55:12.699Z,47.95
2022-10-11T04:55:57.883Z,48.14
2022-10-11T04:56:30.733Z,48.37
2022-10-11T04:57:03.037Z,48.37
2022-10-11T04:57:37.945Z,48.43
2022-10-11T04:58:10.366Z,48.36
2022-10-11T04:58:42.995Z,48.38
2022-10-11T04:59:18.065Z,47.93
2022-10-11T04:59:52.938Z,48.16
2022-10-11T05:00:35.558Z,47.92
2022-10-11T05:01:11.043Z,47.71
2022-10-11T05:01:43.346Z,47.83
2022-10-11T05:02:18.506Z,48.08
2022-10-11T05:03:01.630Z,47.76
2022-10-11T05:03:34.464Z,48.28
2022-10-11T05:04:06.832Z,48.13
2022-10-11T05:04:41.809Z,48.45
2022-10-11T05:05:19.443Z,48.52
2022-10-11T05:05:56.114Z,48.85
2022-10-11T05:06:34.086Z,48.57
2022-10-11T05:07:08.846Z,48.82
2022-10-11T05:07:44.493Z,49.14
2022-10-11T05:08:19.784Z,49.13
2022-10-11T05:08:52.214Z,49.01
2022-10-11T05:09:26.354Z,48.88
2022-10-11T05:10:06.958Z,48.92
2022-10-11T05:10:39.342Z,49.17
2022-10-11T05:11:16.198Z,49.35
2022-10-11T05:11:51.229Z,49.45
2022-10-11T05:12:23.530Z,49.48
2022-10-11T05:12:56.205Z,49.45
2022-10-11T05:13:36.423Z,49.30
2022-10-11T05:14:08.856Z,49.23
2022-10-11T05:14:41.382Z,49.27
2022-10-11T05:15:20.395Z,49.63
2022-10-11T05:15:53.042Z,49.53
2022-10-11T05:16:25.538Z,49.52
2022-10-11T05:17:07.080Z,49.82
2022-10-11T05:17:43.194Z,49.78
2022-10-11T05:18:15.578Z,49.67
2022-10-11T05:18:52.519Z,49.52
2022-10-11T05:19:24.869Z,49.36
2022-10-11T05:20:00.564Z,49.71
2022-10-11T05:20:40.517Z,49.77
2022-10-11T05:21:18.206Z,49.48
2022-10-11T05:21:53.107Z,49.85
2022-10-11T05:22:25.480Z,49.61
2022-10-11T05:22:57.797Z,49.67
2022-10-11T05:23:35.302Z,49.88
2022-10-11T05:24:08.152Z,49.82
2022-10-11T05:24:40.400Z,49.53
2022-10-11T05:25:18.759Z,49.70
2022-10-11T05:25:52.702Z,49.70
2022-10-11T05:26:28.748Z,49.92
2022-10-11T05:27:04.171Z,49.46
2022-10-11T05:27:39.508Z,49.53
2022-10-11T05:28:17.019Z,49.82
2022-10-11T05:28:49.724Z,49.70
2022-10-11T05:29:25.418Z,49.96
2022-10-11T05:30:00.355Z,50.02
2022-10-11T05:30:35.640Z,49.90
2022-10-11T05:31:10.497Z,49.60
2022-10-11T05:31:43.376Z,50.04
2022-10-11T05:32:15.610Z,49.56
2022-10-11T05:32:55.214Z,49.70
2022-10-11T05:33:29.319Z,49.99
2022-10-11T05:34:01.537Z,49.95
2022-10-11T05:34:36.365Z,49.63
2022-10-11T05:35:09.538Z,50.04
2022-10-11T05:35:41.873Z,49.92
2022-10-11T05:36:16.985Z,49.68
2022-10-11T05:36:49.273Z,49.60
2022-10-11T05:37:21.582Z,50.01
2022-10-11T05:37:56.436Z,49.59
2022-10-11T05:38:28.753Z,49.67
2022-10-11T05:39:00.974Z,49.71
2022-10-11T05:39:36.180Z,49.94
2022-10-11T05:40:11.141Z,49.72
2022-10-11T05:40:43.494Z,49.64
2022-10-11T05:41:21.000Z,49.87
2022-10-11T05:41:53.902Z,49.72
2022-10-11T05:42:26.146Z,49.72
2022-10-11T05:43:01.101Z,49.62
2022-10-11T05:43:33.308Z,49.73
2022-10-11T05:44:08.023Z,50.15
2022-10-11T05:44:42.904Z,49.70
2022-10-11T05:45:15.181Z,49.82
2022-10-11T05:45:47.394Z,49.65
2022-10-11T05:46:22.301Z,50.12
2022-10-11T05:46:54.505Z,49.93
2022-10-11T05:47:26.709Z,49.89
2022-10-11T05:48:01.566Z,49.88
2022-10-11T05:48:36.654Z,50.14
2022-10-11T05:49:08.877Z,50.00
2022-10-11T05:49:41.118Z,49.88
2022-10-11T05:50:17.209Z,50.01
2022-10-11T05:50:51.905Z,49.96
2022-10-11T05:51:26.794Z,49.71
2022-10-11T05:51:59.090Z,49.97
2022-10-11T05:52:31.396Z,49.77
2022-10-11T05:53:06.783Z,50.04
2022-10-11T05:53:39.465Z,50.08
2022-10-11T05:54:11.670Z,49.80
2022-10-11T05:54:46.530Z,50.16
2022-10-11T05:55:18.765Z,50.35
2022-10-11T05:55:50.979Z,50.03
2022-10-11T05:56:24.979Z,49.88
2022-10-11T05:56:59.843Z,50.39
2022-10-11T05:57:32.069Z,50.26
2022-10-11T05:58:04.320Z,50.16
2022-10-11T05:58:39.188Z,50.47
2022-10-11T05:59:11.419Z,50.42
2022-10-11T05:59:43.834Z,50.42
2022-10-11T06:00:19.467Z,50.18
2022-10-11T06:00:51.849Z,50.35
2022-10-11T06:01:26.330Z,50.14
2022-10-11T06:02:01.202Z,50.44
2022-10-11T06:02:33.846Z,50.21
2022-10-11T06:03:10.557Z,50.06
2022-10-11T06:03:45.462Z,50.50
2022-10-11T06:04:19.173Z,50.56
2022-10-11T06:04:51.637Z,50.32
2022-10-11T06:05:26.676Z,50.62
2022-10-11T06:06:02.442Z,50.32
2022-10-11T06:06:37.370Z,50.43
2022-10-11T06:07:09.696Z,50.39
2022-10-11T06:07:42.053Z,50.60
2022-10-11T06:08:17.479Z,50.42
2022-10-11T06:08:50.140Z,50.30
2022-10-11T06:09:24.984Z,50.61
2022-10-11T06:09:57.232Z,50.47
2022-10-11T06:10:32.033Z,50.38
2022-10-11T06:11:12.135Z,50.20
2022-10-11T06:11:47.179Z,50.63
2022-10-11T06:12:19.445Z,50.16
2022-10-11T06:12:51.678Z,50.21
2022-10-11T06:13:26.494Z,50.17
2022-10-11T06:13:58.813Z,50.20
2022-10-11T06:14:31.046Z,50.19
2022-10-11T06:15:06.422Z,50.54
2022-10-11T06:15:39.409Z,50.33
2022-10-11T06:16:12.156Z,50.59
2022-10-11T06:16:46.962Z,50.25
2022-10-11T06:17:19.258Z,50.47
2022-10-11T06:17:51.759Z,50.57
2022-10-11T06:18:29.154Z,50.38
2022-10-11T06:19:01.377Z,50.45
2022-10-11T06:19:36.197Z,50.30
2022-10-11T06:20:10.300Z,50.60
2022-10-11T06:20:47.679Z,50.43
2022-10-11T06:21:23.183Z,50.23
2022-10-11T06:21:56.364Z,50.38
2022-10-11T06:22:31.028Z,50.39
2022-10-11T06:23:09.732Z,50.25
2022-10-11T06:23:43.403Z,50.63
2022-10-11T06:24:16.475Z,50.70
2022-10-11T06:24:52.502Z,50.25
2022-10-11T06:25:24.948Z,50.47
2022-10-11T06:25:58.089Z,50.33
2022-10-11T06:26:33.356Z,50.31
2022-10-11T06:27:06.069Z,50.44
2022-10-11T06:27:42.980Z,50.68
2022-10-11T06:28:15.680Z,50.67
2022-10-11T06:28:51.356Z,50.52
2022-10-11T06:29:23.793Z,50.40
2022-10-11T06:29:59.097Z,50.70
2022-10-11T06:30:31.417Z,50.63
2022-10-11T06:31:04.979Z,50.69
2022-10-11T06:31:39.958Z,50.66
2022-10-11T06:32:13.459Z,50.42
2022-10-11T06:32:45.761Z,50.29
2022-10-11T06:33:20.880Z,50.62
2022-10-11T06:33:55.792Z,50.40
2022-10-11T06:34:30.809Z,50.56
2022-10-11T06:35:04.660Z,50.46
2022-10-11T06:35:37.121Z,50.42
2022-10-11T06:36:14.209Z,50.50
2022-10-11T06:36:46.533Z,50.35
2022-10-11T06:37:21.963Z,50.36
2022-10-11T06:37:54.287Z,50.59
2022-10-11T06:38:27.169Z,50.48
2022-10-11T06:39:03.030Z,50.60
2022-10-11T06:39:35.285Z,50.68
2022-10-11T06:40:08.726Z,50.80
2022-10-11T06:40:43.588Z,50.68
2022-10-11T06:41:17.886Z,50.67
2022-10-11T06:41:50.128Z,50.42
2022-10-11T06:42:24.954Z,50.80
2022-10-11T06:42:57.173Z,50.38
2022-10-11T06:43:29.477Z,50.56
2022-10-11T06:44:04.279Z,50.73
2022-10-11T06:44:36.556Z,50.42
2022-10-11T06:45:12.287Z,50.56
2022-10-11T06:45:44.634Z,50.80
2022-10-11T06:46:17.649Z,50.42
2022-10-11T06:46:52.458Z,50.45
2022-10-11T06:47:24.690Z,50.57
2022-10-11T06:47:56.909Z,50.78
2022-10-11T06:48:31.784Z,50.90
2022-10-11T06:49:06.937Z,50.85
2022-10-11T06:49:39.197Z,50.58
2022-10-11T06:50:14.027Z,50.42
2022-10-11T06:50:59.743Z,50.71
2022-10-11T06:51:35.875Z,50.49
2022-10-11T06:52:08.098Z,50.49
2022-10-11T06:52:42.970Z,50.51
2022-10-11T06:53:15.179Z,50.47
2022-10-11T06:53:50.257Z,50.90
2022-10-11T06:54:25.057Z,50.51
2022-10-11T06:54:57.269Z,50.51
2022-10-11T06:55:29.479Z,50.77
2022-10-11T06:56:05.915Z,50.80
2022-10-11T06:56:38.398Z,50.71
2022-10-11T06:57:13.228Z,50.57
2022-10-11T06:57:45.462Z,50.48
2022-10-11T06:58:17.731Z,50.77
2022-10-11T06:58:53.030Z,50.41
2022-10-11T06:59:25.275Z,50.80
2022-10-11T06:59:57.495Z,50.46
2022-10-11T07:00:32.365Z,50.83
2022-10-11T07:01:06.526Z,50.87
2022-10-11T07:01:38.865Z,50.70
2022-10-11T07:02:13.781Z,50.90
2022-10-11T07:02:46.058Z,50.48
2022-10-11T07:03:18.271Z,50.68
2022-10-11T07:03:54.938Z,50.71
2022-10-11T07:04:30.653Z,50.90
2022-10-11T07:05:05.467Z,50.82
2022-10-11T07:05:37.691Z,50.49
2022-10-11T07:06:11.352Z,50.51
2022-10-11T07:06:46.160Z,50.69
2022-10-11T07:07:18.488Z,50.61
2022-10-11T07:07:53.333Z,50.54
2022-10-11T07:08:25.590Z,50.47
2022-10-11T07:09:00.227Z,50.94
2022-10-11T07:09:35.036Z,50.66
2022-10-11T07:10:08.426Z,51.04
2022-10-11T07:10:40.674Z,50.80
2022-10-11T07:11:16.709Z,50.64
2022-10-11T07:11:49.089Z,50.99
2022-10-11T07:12:21.438Z,50.61
2022-10-11T07:12:56.264Z,50.59
2022-10-11T07:13:28.565Z,50.77
2022-10-11T07:14:02.393Z,50.83
2022-10-11T07:14:37.205Z,50.61
2022-10-11T07:15:10.534Z,50.57
2022-10-11T07:15:42.741Z,50.81
2022-10-11T07:16:17.566Z,50.52
2022-10-11T07:16:49.787Z,51.00
2022-10-11T07:17:24.613Z,50.95
2022-10-11T07:17:56.845Z,50.97
2022-10-11T07:18:29.206Z,50.83
2022-10-11T07:19:04.748Z,50.51
2022-10-11T07:19:39.586Z,50.56
2022-10-11T07:20:12.639Z,50.80
2022-10-11T07:20:47.446Z,50.95
2022-10-11T07:21:19.706Z,50.75
2022-10-11T07:21:54.545Z,50.98
2022-10-11T07:22:26.804Z,51.01
2022-10-11T07:22:59.055Z,50.63
2022-10-11T07:23:33.938Z,50.54
2022-10-11T07:24:06.905Z,50.60
2022-10-11T07:24:41.817Z,51.06
2022-10-11T07:25:14.082Z,50.76
2022-10-11T07:25:46.439Z,50.97
2022-10-11T07:26:21.422Z,50.89
2022-10-11T07:26:53.978Z,50.58
2022-10-11T07:27:26.257Z,50.92
2022-10-11T07:28:01.070Z,50.73
2022-10-11T07:28:34.986Z,50.61
2022-10-11T07:29:11.274Z,50.62
2022-10-11T07:29:43.610Z,50.59
2022-10-11T07:30:15.933Z,50.69
2022-10-11T07:30:51.171Z,50.78
2022-10-11T07:31:25.108Z,50.59